Terminal Aerodrome Forecast
Issued by NWS Buffalo, NY

Home | Current Version | Previous Version | Text Only | Print | Product List | Glossary On
Versions: 1 2 3 4 5 6 7 8 9 10 11 12 13 14 15 16 17 18 19 20 21 22 23 24 25 26 27 28 29 30 31 32 33 34 35
000
FTUS41 KBUF 281200 AAA
TAFART
TAF AMD
KART 281236Z 2813/0112 20006KT P6SM VCSH BKN015
      TEMPO 2813/2816 BKN035
     FM281600 23010G16KT 5SM -SHSN BKN025
     FM282200 22008KT P6SM VCSH BKN025
     FM010300 17004KT P6SM BKN035
     FM010600 15004KT P6SM SCT060
     FM011000 VRB03KT P6SM BKN120=

USA.gov is the U.S. government's official web portal to all federal, state and local government web resources and services.